sensor_id;sensor_type;location;lat;lon;timestamp;temperature;humidity
33994;DHT22;20673;48.980;8.138;2023-08-07T00:00:57;13.90;99.90
33994;DHT22;20673;48.980;8.138;2023-08-07T00:03:23;13.90;99.90
33994;DHT22;20673;48.980;8.138;2023-08-07T00:05:49;13.80;99.90
33994;DHT22;20673;48.980;8.138;2023-08-07T00:08:18;13.80;99.90
33994;DHT22;20673;48.980;8.138;2023-08-07T00:10:45;13.80;99.90
33994;DHT22;20673;48.980;8.138;2023-08-07T00:13:11;13.80;99.90
33994;DHT22;20673;48.980;8.138;2023-08-07T00:15:40;13.80;99.90
33994;DHT22;20673;48.980;8.138;2023-08-07T00:18:06;13.80;99.90
33994;DHT22;20673;48.980;8.138;2023-08-07T00:20:32;13.70;99.90
33994;DHT22;20673;48.980;8.138;2023-08-07T00:22:58;13.80;99.90
33994;DHT22;20673;48.980;8.138;2023-08-07T00:25:24;13.80;99.90
33994;DHT22;20673;48.980;8.138;2023-08-07T00:27:50;13.80;99.90
33994;DHT22;20673;48.980;8.138;2023-08-07T00:30:16;13.80;99.90
33994;DHT22;20673;48.980;8.138;2023-08-07T00:32:42;13.80;99.90
33994;DHT22;20673;48.980;8.138;2023-08-07T00:35:08;13.80;99.90
33994;DHT22;20673;48.980;8.138;2023-08-07T00:37:35;13.80;99.90
33994;DHT22;20673;48.980;8.138;2023-08-07T00:40:01;13.80;99.90
33994;DHT22;20673;48.980;8.138;2023-08-07T00:42:27;13.80;99.90
33994;DHT22;20673;48.980;8.138;2023-08-07T00:44:53;13.80;99.90
33994;DHT22;20673;48.980;8.138;2023-08-07T00:47:19;13.80;99.90
33994;DHT22;20673;48.980;8.138;2023-08-07T00:49:47;13.70;99.90
33994;DHT22;20673;48.980;8.138;2023-08-07T00:52:14;13.70;99.90
33994;DHT22;20673;48.980;8.138;2023-08-07T00:54:40;13.70;99.90
33994;DHT22;20673;48.980;8.138;2023-08-07T00:57:12;13.70;99.90
33994;DHT22;20673;48.980;8.138;2023-08-07T00:59:41;13.70;99.90
33994;DHT22;20673;48.980;8.138;2023-08-07T01:02:09;13.60;99.90
33994;DHT22;20673;48.980;8.138;2023-08-07T01:04:37;13.60;99.90
33994;DHT22;20673;48.980;8.138;2023-08-07T01:07:04;13.60;99.90
33994;DHT22;20673;48.980;8.138;2023-08-07T01:09:31;13.60;99.90
33994;DHT22;20673;48.980;8.138;2023-08-07T01:12:07;13.60;99.90
33994;DHT22;20673;48.980;8.138;2023-08-07T01:14:52;13.60;99.90
33994;DHT22;20673;48.980;8.138;2023-08-07T01:17:30;13.60;99.90
33994;DHT22;20673;48.980;8.138;2023-08-07T01:19:59;13.60;99.90
33994;DHT22;20673;48.980;8.138;2023-08-07T01:22:26;13.50;99.90
33994;DHT22;20673;48.980;8.138;2023-08-07T01:24:52;13.50;99.90
33994;DHT22;20673;48.980;8.138;2023-08-07T01:27:24;13.50;99.90
33994;DHT22;20673;48.980;8.138;2023-08-07T01:36:01;13.50;99.90
33994;DHT22;20673;48.980;8.138;2023-08-07T01:38:29;13.60;99.90
33994;DHT22;20673;48.980;8.138;2023-08-07T01:40:58;13.60;99.90
33994;DHT22;20673;48.980;8.138;2023-08-07T01:43:26;13.50;99.90
33994;DHT22;20673;48.980;8.138;2023-08-07T01:45:53;13.50;99.90
33994;DHT22;20673;48.980;8.138;2023-08-07T01:48:19;13.50;99.90
33994;DHT22;20673;48.980;8.138;2023-08-07T01:50:45;13.40;99.90
33994;DHT22;20673;48.980;8.138;2023-08-07T01:53:13;13.40;99.90
33994;DHT22;20673;48.980;8.138;2023-08-07T01:55:39;13.30;99.90
33994;DHT22;20673;48.980;8.138;2023-08-07T01:58:05;13.20;99.90
33994;DHT22;20673;48.980;8.138;2023-08-07T02:00:31;13.20;99.90
33994;DHT22;20673;48.980;8.138;2023-08-07T02:02:57;13.00;99.90
33994;DHT22;20673;48.980;8.138;2023-08-07T02:05:23;13.00;99.90
33994;DHT22;20673;48.980;8.138;2023-08-07T02:07:49;12.90;99.90
33994;DHT22;20673;48.980;8.138;2023-08-07T02:10:16;12.80;99.90
33994;DHT22;20673;48.980;8.138;2023-08-07T02:12:42;12.80;99.90
33994;DHT22;20673;48.980;8.138;2023-08-07T02:15:08;12.80;99.90
33994;DHT22;20673;48.980;8.138;2023-08-07T02:17:35;12.70;99.90
33994;DHT22;20673;48.980;8.138;2023-08-07T02:20:06;12.70;99.90
33994;DHT22;20673;48.980;8.138;2023-08-07T02:22:33;12.70;99.90
33994;DHT22;20673;48.980;8.138;2023-08-07T02:24:59;12.70;99.90
33994;DHT22;20673;48.980;8.138;2023-08-07T02:27:25;12.60;99.90
33994;DHT22;20673;48.980;8.138;2023-08-07T02:29:51;12.60;99.90
33994;DHT22;20673;48.980;8.138;2023-08-07T02:32:18;12.60;99.90
33994;DHT22;20673;48.980;8.138;2023-08-07T02:34:44;12.60;99.90
33994;DHT22;20673;48.980;8.138;2023-08-07T02:37:11;12.50;99.90
33994;DHT22;20673;48.980;8.138;2023-08-07T02:39:38;12.40;99.90
33994;DHT22;20673;48.980;8.138;2023-08-07T02:42:04;12.40;99.90
33994;DHT22;20673;48.980;8.138;2023-08-07T02:44:30;12.40;99.90
33994;DHT22;20673;48.980;8.138;2023-08-07T02:46:57;12.30;99.90
33994;DHT22;20673;48.980;8.138;2023-08-07T02:49:23;12.30;99.90
33994;DHT22;20673;48.980;8.138;2023-08-07T02:51:49;12.20;99.90
33994;DHT22;20673;48.980;8.138;2023-08-07T02:54:15;12.20;99.90
33994;DHT22;20673;48.980;8.138;2023-08-07T02:56:41;12.10;99.90
33994;DHT22;20673;48.980;8.138;2023-08-07T02:59:07;12.00;99.90
33994;DHT22;20673;48.980;8.138;2023-08-07T03:01:33;11.90;99.90
33994;DHT22;20673;48.980;8.138;2023-08-07T03:03:59;11.90;99.90
33994;DHT22;20673;48.980;8.138;2023-08-07T03:06:25;11.90;99.90
33994;DHT22;20673;48.980;8.138;2023-08-07T03:08:51;12.00;99.90
33994;DHT22;20673;48.980;8.138;2023-08-07T03:11:18;12.00;99.90
33994;DHT22;20673;48.980;8.138;2023-08-07T03:13:44;11.90;99.90
33994;DHT22;20673;48.980;8.138;2023-08-07T03:16:10;12.00;99.90
33994;DHT22;20673;48.980;8.138;2023-08-07T03:18:36;12.00;99.90
33994;DHT22;20673;48.980;8.138;2023-08-07T03:21:02;11.90;99.90
33994;DHT22;20673;48.980;8.138;2023-08-07T03:23:28;11.90;99.90
33994;DHT22;20673;48.980;8.138;2023-08-07T03:26:11;11.80;99.90
33994;DHT22;20673;48.980;8.138;2023-08-07T03:28:36;11.80;99.90
33994;DHT22;20673;48.980;8.138;2023-08-07T03:31:03;11.80;99.90
33994;DHT22;20673;48.980;8.138;2023-08-07T03:33:29;11.90;99.90
33994;DHT22;20673;48.980;8.138;2023-08-07T03:35:56;11.80;99.90
33994;DHT22;20673;48.980;8.138;2023-08-07T03:38:22;11.70;99.90
33994;DHT22;20673;48.980;8.138;2023-08-07T03:40:49;11.70;99.90
33994;DHT22;20673;48.980;8.138;2023-08-07T03:43:15;11.70;99.90
33994;DHT22;20673;48.980;8.138;2023-08-07T03:45:41;11.70;99.90
33994;DHT22;20673;48.980;8.138;2023-08-07T03:48:07;11.70;99.90
33994;DHT22;20673;48.980;8.138;2023-08-07T03:50:34;11.70;99.90
33994;DHT22;20673;48.980;8.138;2023-08-07T03:53:03;11.70;99.90
33994;DHT22;20673;48.980;8.138;2023-08-07T03:55:31;11.70;99.90
33994;DHT22;20673;48.980;8.138;2023-08-07T03:57:58;11.70;99.90
33994;DHT22;20673;48.980;8.138;2023-08-07T04:00:24;11.60;99.90
33994;DHT22;20673;48.980;8.138;2023-08-07T04:02:50;11.60;99.90
33994;DHT22;20673;48.980;8.138;2023-08-07T04:05:17;11.70;99.90
33994;DHT22;20673;48.980;8.138;2023-08-07T04:07:43;11.70;99.90
33994;DHT22;20673;48.980;8.138;2023-08-07T04:10:09;11.70;99.90
33994;DHT22;20673;48.980;8.138;2023-08-07T04:12:35;11.70;99.90
33994;DHT22;20673;48.980;8.138;2023-08-07T04:15:01;11.80;99.90
33994;DHT22;20673;48.980;8.138;2023-08-07T04:17:28;11.70;99.90
33994;DHT22;20673;48.980;8.138;2023-08-07T04:19:54;11.80;99.90
33994;DHT22;20673;48.980;8.138;2023-08-07T04:22:20;11.80;99.90
33994;DHT22;20673;48.980;8.138;2023-08-07T04:24:46;11.80;99.90
33994;DHT22;20673;48.980;8.138;2023-08-07T04:27:12;11.90;99.90
33994;DHT22;20673;48.980;8.138;2023-08-07T04:29:38;12.00;99.90
33994;DHT22;20673;48.980;8.138;2023-08-07T04:32:05;12.00;99.90
33994;DHT22;20673;48.980;8.138;2023-08-07T04:34:32;12.00;99.90
33994;DHT22;20673;48.980;8.138;2023-08-07T04:36:58;12.10;99.90
33994;DHT22;20673;48.980;8.138;2023-08-07T04:39:24;12.10;99.90
33994;DHT22;20673;48.980;8.138;2023-08-07T04:41:50;12.20;99.90
33994;DHT22;20673;48.980;8.138;2023-08-07T04:44:16;12.20;99.90
33994;DHT22;20673;48.980;8.138;2023-08-07T04:46:42;12.30;99.90
33994;DHT22;20673;48.980;8.138;2023-08-07T04:49:08;12.20;99.90
33994;DHT22;20673;48.980;8.138;2023-08-07T04:51:34;12.30;99.90
33994;DHT22;20673;48.980;8.138;2023-08-07T04:54:01;12.30;99.90
33994;DHT22;20673;48.980;8.138;2023-08-07T04:56:28;12.20;99.90
33994;DHT22;20673;48.980;8.138;2023-08-07T04:58:54;12.30;99.90
33994;DHT22;20673;48.980;8.138;2023-08-07T05:01:20;12.30;99.90
33994;DHT22;20673;48.980;8.138;2023-08-07T05:03:46;12.30;99.90
33994;DHT22;20673;48.980;8.138;2023-08-07T05:06:12;12.40;99.90
33994;DHT22;20673;48.980;8.138;2023-08-07T05:08:38;12.40;99.90
33994;DHT22;20673;48.980;8.138;2023-08-07T05:11:04;12.40;99.90
33994;DHT22;20673;48.980;8.138;2023-08-07T05:13:30;12.40;99.90
33994;DHT22;20673;48.980;8.138;2023-08-07T05:15:57;12.40;99.90
33994;DHT22;20673;48.980;8.138;2023-08-07T05:18:23;12.40;99.90
33994;DHT22;20673;48.980;8.138;2023-08-07T05:20:49;12.40;99.90
33994;DHT22;20673;48.980;8.138;2023-08-07T05:23:15;12.40;99.90
33994;DHT22;20673;48.980;8.138;2023-08-07T05:25:41;12.40;99.90
33994;DHT22;20673;48.980;8.138;2023-08-07T05:28:09;12.50;99.90
33994;DHT22;20673;48.980;8.138;2023-08-07T05:30:35;12.60;99.90
33994;DHT22;20673;48.980;8.138;2023-08-07T05:33:02;12.60;99.90
33994;DHT22;20673;48.980;8.138;2023-08-07T05:35:28;12.70;99.90
33994;DHT22;20673;48.980;8.138;2023-08-07T05:37:54;12.80;99.90
33994;DHT22;20673;48.980;8.138;2023-08-07T05:40:20;12.80;99.90
33994;DHT22;20673;48.980;8.138;2023-08-07T05:42:46;12.80;99.90
33994;DHT22;20673;48.980;8.138;2023-08-07T05:45:12;12.90;99.90
33994;DHT22;20673;48.980;8.138;2023-08-07T05:47:38;12.90;99.90
33994;DHT22;20673;48.980;8.138;2023-08-07T05:50:05;12.90;99.90
33994;DHT22;20673;48.980;8.138;2023-08-07T05:52:31;12.90;99.90
33994;DHT22;20673;48.980;8.138;2023-08-07T05:54:57;12.90;99.90
33994;DHT22;20673;48.980;8.138;2023-08-07T05:57:24;12.80;99.90
33994;DHT22;20673;48.980;8.138;2023-08-07T05:59:50;12.80;99.90
33994;DHT22;20673;48.980;8.138;2023-08-07T06:02:16;12.80;99.90
33994;DHT22;20673;48.980;8.138;2023-08-07T06:04:43;12.70;99.90
33994;DHT22;20673;48.980;8.138;2023-08-07T06:07:09;12.80;99.90
33994;DHT22;20673;48.980;8.138;2023-08-07T06:09:36;12.70;99.90
33994;DHT22;20673;48.980;8.138;2023-08-07T06:12:02;12.80;99.90
33994;DHT22;20673;48.980;8.138;2023-08-07T06:14:28;12.90;99.90
33994;DHT22;20673;48.980;8.138;2023-08-07T06:16:54;13.00;99.90
33994;DHT22;20673;48.980;8.138;2023-08-07T06:19:22;13.10;99.90
33994;DHT22;20673;48.980;8.138;2023-08-07T06:21:49;13.20;99.90
33994;DHT22;20673;48.980;8.138;2023-08-07T06:24:15;13.30;99.90
33994;DHT22;20673;48.980;8.138;2023-08-07T06:26:41;13.40;99.90
33994;DHT22;20673;48.980;8.138;2023-08-07T06:29:07;13.60;99.90
33994;DHT22;20673;48.980;8.138;2023-08-07T06:31:33;13.80;99.90
33994;DHT22;20673;48.980;8.138;2023-08-07T06:33:59;13.90;99.90
33994;DHT22;20673;48.980;8.138;2023-08-07T06:36:25;13.90;99.90
33994;DHT22;20673;48.980;8.138;2023-08-07T06:38:52;14.00;99.90
33994;DHT22;20673;48.980;8.138;2023-08-07T06:41:18;13.90;99.90
33994;DHT22;20673;48.980;8.138;2023-08-07T06:43:44;14.00;99.90
33994;DHT22;20673;48.980;8.138;2023-08-07T06:46:11;14.00;99.90
33994;DHT22;20673;48.980;8.138;2023-08-07T06:48:37;14.00;99.90
33994;DHT22;20673;48.980;8.138;2023-08-07T06:51:03;14.10;99.90
33994;DHT22;20673;48.980;8.138;2023-08-07T06:53:29;14.20;99.90
33994;DHT22;20673;48.980;8.138;2023-08-07T06:55:55;14.40;99.90
33994;DHT22;20673;48.980;8.138;2023-08-07T06:58:21;14.40;99.90
33994;DHT22;20673;48.980;8.138;2023-08-07T07:00:47;14.50;99.90
33994;DHT22;20673;48.980;8.138;2023-08-07T07:03:14;14.60;99.90
33994;DHT22;20673;48.980;8.138;2023-08-07T07:05:40;14.70;99.90
33994;DHT22;20673;48.980;8.138;2023-08-07T07:08:08;14.80;99.90
33994;DHT22;20673;48.980;8.138;2023-08-07T07:10:34;14.80;99.90
33994;DHT22;20673;48.980;8.138;2023-08-07T07:13:00;14.90;99.90
33994;DHT22;20673;48.980;8.138;2023-08-07T07:15:26;14.90;99.90
33994;DHT22;20673;48.980;8.138;2023-08-07T07:17:52;14.80;99.90
33994;DHT22;20673;48.980;8.138;2023-08-07T07:20:19;14.80;99.90
33994;DHT22;20673;48.980;8.138;2023-08-07T07:22:46;14.90;99.90
33994;DHT22;20673;48.980;8.138;2023-08-07T07:25:12;14.90;99.90
33994;DHT22;20673;48.980;8.138;2023-08-07T07:27:39;15.00;99.90
33994;DHT22;20673;48.980;8.138;2023-08-07T07:30:06;15.00;99.90
33994;DHT22;20673;48.980;8.138;2023-08-07T07:32:33;14.90;99.90
33994;DHT22;20673;48.980;8.138;2023-08-07T07:34:59;15.00;99.90
33994;DHT22;20673;48.980;8.138;2023-08-07T07:37:25;15.10;99.90
33994;DHT22;20673;48.980;8.138;2023-08-07T07:39:52;15.10;99.90
33994;DHT22;20673;48.980;8.138;2023-08-07T07:42:18;15.20;99.90
33994;DHT22;20673;48.980;8.138;2023-08-07T07:44:44;15.30;99.90
33994;DHT22;20673;48.980;8.138;2023-08-07T07:47:10;15.30;99.90
33994;DHT22;20673;48.980;8.138;2023-08-07T07:49:36;15.30;99.90
33994;DHT22;20673;48.980;8.138;2023-08-07T07:52:02;15.30;99.90
33994;DHT22;20673;48.980;8.138;2023-08-07T07:54:29;15.40;99.90
33994;DHT22;20673;48.980;8.138;2023-08-07T07:56:55;15.30;99.90
33994;DHT22;20673;48.980;8.138;2023-08-07T07:59:21;15.40;99.90
33994;DHT22;20673;48.980;8.138;2023-08-07T08:01:47;15.40;99.90
33994;DHT22;20673;48.980;8.138;2023-08-07T08:04:13;15.50;99.90
33994;DHT22;20673;48.980;8.138;2023-08-07T08:06:40;15.70;99.90
33994;DHT22;20673;48.980;8.138;2023-08-07T08:09:06;15.70;99.90
33994;DHT22;20673;48.980;8.138;2023-08-07T08:11:34;15.80;99.90
33994;DHT22;20673;48.980;8.138;2023-08-07T08:14:01;15.80;99.90
33994;DHT22;20673;48.980;8.138;2023-08-07T08:16:27;15.90;99.90
33994;DHT22;20673;48.980;8.138;2023-08-07T08:18:53;16.10;99.90
33994;DHT22;20673;48.980;8.138;2023-08-07T08:21:19;16.20;99.90
33994;DHT22;20673;48.980;8.138;2023-08-07T08:23:45;16.20;99.90
33994;DHT22;20673;48.980;8.138;2023-08-07T08:26:11;16.30;99.90
33994;DHT22;20673;48.980;8.138;2023-08-07T08:28:38;16.20;99.90
33994;DHT22;20673;48.980;8.138;2023-08-07T08:31:04;16.30;99.90
33994;DHT22;20673;48.980;8.138;2023-08-07T08:33:31;16.30;99.90
33994;DHT22;20673;48.980;8.138;2023-08-07T08:35:57;16.20;99.90
33994;DHT22;20673;48.980;8.138;2023-08-07T08:38:23;16.30;99.90
33994;DHT22;20673;48.980;8.138;2023-08-07T08:40:51;16.40;99.90
33994;DHT22;20673;48.980;8.138;2023-08-07T08:43:18;16.40;99.90
33994;DHT22;20673;48.980;8.138;2023-08-07T08:45:46;16.50;99.90
33994;DHT22;20673;48.980;8.138;2023-08-07T08:48:19;16.50;99.90
33994;DHT22;20673;48.980;8.138;2023-08-07T08:50:46;16.60;99.90
33994;DHT22;20673;48.980;8.138;2023-08-07T08:53:12;16.70;99.90
33994;DHT22;20673;48.980;8.138;2023-08-07T08:55:40;16.80;99.90
33994;DHT22;20673;48.980;8.138;2023-08-07T08:58:08;17.00;99.90
33994;DHT22;20673;48.980;8.138;2023-08-07T09:00:35;17.10;99.90
33994;DHT22;20673;48.980;8.138;2023-08-07T09:03:02;17.10;99.90
33994;DHT22;20673;48.980;8.138;2023-08-07T09:05:28;17.10;99.90
33994;DHT22;20673;48.980;8.138;2023-08-07T09:07:55;17.00;99.90
33994;DHT22;20673;48.980;8.138;2023-08-07T09:10:22;17.10;99.90
33994;DHT22;20673;48.980;8.138;2023-08-07T09:13:04;17.10;99.90
33994;DHT22;20673;48.980;8.138;2023-08-07T09:15:33;17.20;99.90
33994;DHT22;20673;48.980;8.138;2023-08-07T09:18:03;17.30;99.90
33994;DHT22;20673;48.980;8.138;2023-08-07T09:20:34;17.40;99.90
33994;DHT22;20673;48.980;8.138;2023-08-07T09:23:01;17.40;99.90
33994;DHT22;20673;48.980;8.138;2023-08-07T09:25:30;17.50;99.90
33994;DHT22;20673;48.980;8.138;2023-08-07T09:27:57;17.60;99.90
33994;DHT22;20673;48.980;8.138;2023-08-07T09:30:26;17.70;99.90
33994;DHT22;20673;48.980;8.138;2023-08-07T09:32:57;17.80;99.90
33994;DHT22;20673;48.980;8.138;2023-08-07T09:35:23;18.00;99.90
33994;DHT22;20673;48.980;8.138;2023-08-07T09:37:50;18.00;99.90
33994;DHT22;20673;48.980;8.138;2023-08-07T09:40:18;18.00;99.90
33994;DHT22;20673;48.980;8.138;2023-08-07T09:42:49;18.00;99.90
33994;DHT22;20673;48.980;8.138;2023-08-07T09:45:27;18.10;99.90
33994;DHT22;20673;48.980;8.138;2023-08-07T09:48:04;18.40;99.90
33994;DHT22;20673;48.980;8.138;2023-08-07T09:50:34;18.50;99.90
33994;DHT22;20673;48.980;8.138;2023-08-07T09:53:00;18.50;99.90
33994;DHT22;20673;48.980;8.138;2023-08-07T09:55:27;18.60;99.90
33994;DHT22;20673;48.980;8.138;2023-08-07T09:57:53;18.80;99.90
33994;DHT22;20673;48.980;8.138;2023-08-07T10:00:20;19.00;99.90
33994;DHT22;20673;48.980;8.138;2023-08-07T10:02:48;19.50;99.90
33994;DHT22;20673;48.980;8.138;2023-08-07T10:05:15;19.60;99.90
33994;DHT22;20673;48.980;8.138;2023-08-07T10:07:42;19.40;99.90
33994;DHT22;20673;48.980;8.138;2023-08-07T10:10:09;19.50;99.90
33994;DHT22;20673;48.980;8.138;2023-08-07T10:12:37;19.90;99.90
33994;DHT22;20673;48.980;8.138;2023-08-07T10:15:06;19.90;99.90
33994;DHT22;20673;48.980;8.138;2023-08-07T10:17:33;19.80;99.90
33994;DHT22;20673;48.980;8.138;2023-08-07T10:19:59;19.50;99.90
33994;DHT22;20673;48.980;8.138;2023-08-07T10:22:29;19.60;99.90
33994;DHT22;20673;48.980;8.138;2023-08-07T10:25:01;20.00;99.90
33994;DHT22;20673;48.980;8.138;2023-08-07T10:27:30;20.50;99.90
33994;DHT22;20673;48.980;8.138;2023-08-07T10:30:00;20.90;99.90
33994;DHT22;20673;48.980;8.138;2023-08-07T10:32:28;20.40;99.90
33994;DHT22;20673;48.980;8.138;2023-08-07T10:34:56;20.20;99.90
33994;DHT22;20673;48.980;8.138;2023-08-07T10:37:39;20.50;99.90
33994;DHT22;20673;48.980;8.138;2023-08-07T10:40:11;20.80;99.90
33994;DHT22;20673;48.980;8.138;2023-08-07T10:43:11;21.80;99.90
33994;DHT22;20673;48.980;8.138;2023-08-07T10:45:35;21.50;99.90
33994;DHT22;20673;48.980;8.138;2023-08-07T10:48:07;20.40;99.90
33994;DHT22;20673;48.980;8.138;2023-08-07T10:50:50;20.00;99.90
33994;DHT22;20673;48.980;8.138;2023-08-07T10:56:04;19.70;99.90
33994;DHT22;20673;48.980;8.138;2023-08-07T10:58:38;20.10;99.90
33994;DHT22;20673;48.980;8.138;2023-08-07T11:03:57;20.70;99.90
33994;DHT22;20673;48.980;8.138;2023-08-07T11:06:29;20.00;99.90
33994;DHT22;20673;48.980;8.138;2023-08-07T11:08:58;19.80;99.90
33994;DHT22;20673;48.980;8.138;2023-08-07T11:11:26;20.30;99.90
33994;DHT22;20673;48.980;8.138;2023-08-07T11:13:53;20.70;99.90
33994;DHT22;20673;48.980;8.138;2023-08-07T11:16:19;21.00;99.90
33994;DHT22;20673;48.980;8.138;2023-08-07T11:18:51;21.20;99.90
33994;DHT22;20673;48.980;8.138;2023-08-07T11:21:18;21.70;99.90
33994;DHT22;20673;48.980;8.138;2023-08-07T11:23:45;21.70;99.90
33994;DHT22;20673;48.980;8.138;2023-08-07T11:26:12;21.50;99.90
33994;DHT22;20673;48.980;8.138;2023-08-07T11:28:38;21.30;99.90
33994;DHT22;20673;48.980;8.138;2023-08-07T11:31:04;21.20;99.90
33994;DHT22;20673;48.980;8.138;2023-08-07T11:33:30;21.30;99.90
33994;DHT22;20673;48.980;8.138;2023-08-07T11:35:57;21.70;99.90
33994;DHT22;20673;48.980;8.138;2023-08-07T11:38:40;21.90;99.90
33994;DHT22;20673;48.980;8.138;2023-08-07T11:41:09;21.90;99.90
33994;DHT22;20673;48.980;8.138;2023-08-07T11:43:36;21.40;99.90
33994;DHT22;20673;48.980;8.138;2023-08-07T11:46:06;21.20;99.90
33994;DHT22;20673;48.980;8.138;2023-08-07T11:48:35;21.10;99.90
33994;DHT22;20673;48.980;8.138;2023-08-07T11:51:04;20.90;99.90
33994;DHT22;20673;48.980;8.138;2023-08-07T11:53:33;20.70;99.90
33994;DHT22;20673;48.980;8.138;2023-08-07T11:56:05;20.40;99.90
33994;DHT22;20673;48.980;8.138;2023-08-07T11:58:34;20.40;99.90
33994;DHT22;20673;48.980;8.138;2023-08-07T12:01:17;21.20;99.90
33994;DHT22;20673;48.980;8.138;2023-08-07T12:03:52;21.50;99.90
33994;DHT22;20673;48.980;8.138;2023-08-07T12:06:21;21.50;99.90
33994;DHT22;20673;48.980;8.138;2023-08-07T12:08:50;21.20;99.90
33994;DHT22;20673;48.980;8.138;2023-08-07T12:11:22;21.10;99.90
33994;DHT22;20673;48.980;8.138;2023-08-07T12:13:49;21.20;99.90
33994;DHT22;20673;48.980;8.138;2023-08-07T12:16:16;21.60;99.90
33994;DHT22;20673;48.980;8.138;2023-08-07T12:18:44;22.00;99.90
33994;DHT22;20673;48.980;8.138;2023-08-07T12:21:18;22.60;99.90
33994;DHT22;20673;48.980;8.138;2023-08-07T12:23:46;22.50;99.90
33994;DHT22;20673;48.980;8.138;2023-08-07T12:26:13;22.00;99.90
33994;DHT22;20673;48.980;8.138;2023-08-07T12:28:40;21.70;99.90
33994;DHT22;20673;48.980;8.138;2023-08-07T12:31:06;21.40;99.90
33994;DHT22;20673;48.980;8.138;2023-08-07T12:33:33;21.90;99.90
33994;DHT22;20673;48.980;8.138;2023-08-07T12:36:00;21.90;99.90
33994;DHT22;20673;48.980;8.138;2023-08-07T12:38:27;21.80;99.90
33994;DHT22;20673;48.980;8.138;2023-08-07T12:40:54;21.70;99.90
33994;DHT22;20673;48.980;8.138;2023-08-07T12:43:21;21.70;99.90
33994;DHT22;20673;48.980;8.138;2023-08-07T12:45:47;21.60;99.90
33994;DHT22;20673;48.980;8.138;2023-08-07T12:48:14;21.80;99.90
33994;DHT22;20673;48.980;8.138;2023-08-07T12:50:40;21.30;99.90
33994;DHT22;20673;48.980;8.138;2023-08-07T12:53:07;21.10;99.90
33994;DHT22;20673;48.980;8.138;2023-08-07T12:55:33;20.90;99.90
33994;DHT22;20673;48.980;8.138;2023-08-07T12:58:00;20.80;99.90
33994;DHT22;20673;48.980;8.138;2023-08-07T13:00:26;21.00;99.90
33994;DHT22;20673;48.980;8.138;2023-08-07T13:02:53;21.40;99.90
33994;DHT22;20673;48.980;8.138;2023-08-07T13:05:22;21.50;99.90
33994;DHT22;20673;48.980;8.138;2023-08-07T13:07:49;21.80;99.90
33994;DHT22;20673;48.980;8.138;2023-08-07T13:10:16;22.20;99.90
33994;DHT22;20673;48.980;8.138;2023-08-07T13:12:44;22.60;99.90
33994;DHT22;20673;48.980;8.138;2023-08-07T13:15:14;23.00;99.90
33994;DHT22;20673;48.980;8.138;2023-08-07T13:17:42;23.00;99.90
33994;DHT22;20673;48.980;8.138;2023-08-07T13:20:13;23.30;99.90
33994;DHT22;20673;48.980;8.138;2023-08-07T13:22:45;22.90;99.90
33994;DHT22;20673;48.980;8.138;2023-08-07T13:25:10;22.50;99.90
33994;DHT22;20673;48.980;8.138;2023-08-07T13:27:38;22.80;99.90
33994;DHT22;20673;48.980;8.138;2023-08-07T13:30:06;22.50;99.90
33994;DHT22;20673;48.980;8.138;2023-08-07T13:32:33;22.30;99.90
33994;DHT22;20673;48.980;8.138;2023-08-07T13:34:59;21.90;99.90
33994;DHT22;20673;48.980;8.138;2023-08-07T13:37:26;21.70;99.90
33994;DHT22;20673;48.980;8.138;2023-08-07T13:39:52;21.80;99.90
33994;DHT22;20673;48.980;8.138;2023-08-07T13:42:20;21.80;99.90
33994;DHT22;20673;48.980;8.138;2023-08-07T13:44:46;21.40;99.90
33994;DHT22;20673;48.980;8.138;2023-08-07T13:47:12;21.30;99.90
33994;DHT22;20673;48.980;8.138;2023-08-07T13:49:39;21.70;99.90
33994;DHT22;20673;48.980;8.138;2023-08-07T13:52:05;21.70;99.90
33994;DHT22;20673;48.980;8.138;2023-08-07T13:54:32;21.20;99.90
33994;DHT22;20673;48.980;8.138;2023-08-07T13:56:58;20.90;99.90
33994;DHT22;20673;48.980;8.138;2023-08-07T13:59:24;20.60;99.90
33994;DHT22;20673;48.980;8.138;2023-08-07T14:01:50;20.30;99.90
33994;DHT22;20673;48.980;8.138;2023-08-07T14:04:17;20.00;99.90
33994;DHT22;20673;48.980;8.138;2023-08-07T14:06:43;19.90;99.90
33994;DHT22;20673;48.980;8.138;2023-08-07T14:09:10;19.80;99.90
33994;DHT22;20673;48.980;8.138;2023-08-07T14:11:37;19.50;99.90
33994;DHT22;20673;48.980;8.138;2023-08-07T14:14:03;19.50;99.90
33994;DHT22;20673;48.980;8.138;2023-08-07T14:16:30;19.60;99.90
33994;DHT22;20673;48.980;8.138;2023-08-07T14:18:57;19.60;99.90
33994;DHT22;20673;48.980;8.138;2023-08-07T14:21:23;19.60;99.90
33994;DHT22;20673;48.980;8.138;2023-08-07T14:23:50;19.70;99.90
33994;DHT22;20673;48.980;8.138;2023-08-07T14:26:16;19.80;99.90
33994;DHT22;20673;48.980;8.138;2023-08-07T14:28:44;20.00;99.90
33994;DHT22;20673;48.980;8.138;2023-08-07T14:31:10;20.60;99.90
33994;DHT22;20673;48.980;8.138;2023-08-07T14:33:37;21.20;99.90
33994;DHT22;20673;48.980;8.138;2023-08-07T14:36:03;21.20;99.90
33994;DHT22;20673;48.980;8.138;2023-08-07T14:38:30;21.10;99.90
33994;DHT22;20673;48.980;8.138;2023-08-07T14:40:56;20.90;99.90
33994;DHT22;20673;48.980;8.138;2023-08-07T14:43:27;20.70;99.90
33994;DHT22;20673;48.980;8.138;2023-08-07T14:45:54;20.60;99.90
33994;DHT22;20673;48.980;8.138;2023-08-07T14:48:21;20.50;99.90
33994;DHT22;20673;48.980;8.138;2023-08-07T14:50:47;20.50;99.90
33994;DHT22;20673;48.980;8.138;2023-08-07T14:53:13;20.90;99.90
33994;DHT22;20673;48.980;8.138;2023-08-07T14:55:39;21.10;99.90
33994;DHT22;20673;48.980;8.138;2023-08-07T14:58:07;21.60;99.90
33994;DHT22;20673;48.980;8.138;2023-08-07T15:00:35;22.10;99.90
33994;DHT22;20673;48.980;8.138;2023-08-07T15:03:01;22.10;99.90
33994;DHT22;20673;48.980;8.138;2023-08-07T15:05:28;21.90;99.90
33994;DHT22;20673;48.980;8.138;2023-08-07T15:07:54;21.40;99.90
33994;DHT22;20673;48.980;8.138;2023-08-07T15:10:20;21.10;99.90
33994;DHT22;20673;48.980;8.138;2023-08-07T15:12:47;20.90;99.90
33994;DHT22;20673;48.980;8.138;2023-08-07T15:15:13;20.70;99.90
33994;DHT22;20673;48.980;8.138;2023-08-07T15:17:40;20.50;99.90
33994;DHT22;20673;48.980;8.138;2023-08-07T15:20:07;20.40;99.90
33994;DHT22;20673;48.980;8.138;2023-08-07T15:22:33;20.20;99.90
33994;DHT22;20673;48.980;8.138;2023-08-07T15:24:59;20.00;99.90
33994;DHT22;20673;48.980;8.138;2023-08-07T15:27:26;19.80;99.90
33994;DHT22;20673;48.980;8.138;2023-08-07T15:29:52;19.70;99.90
33994;DHT22;20673;48.980;8.138;2023-08-07T15:32:18;19.70;99.90
33994;DHT22;20673;48.980;8.138;2023-08-07T15:34:47;19.70;99.90
33994;DHT22;20673;48.980;8.138;2023-08-07T15:37:14;19.70;99.90
33994;DHT22;20673;48.980;8.138;2023-08-07T15:39:40;19.80;99.90
33994;DHT22;20673;48.980;8.138;2023-08-07T15:42:06;20.20;99.90